Time;durP1;ratioP1;P1;durP2;ratioP2;P2;SDS_P1;SDS_P2;PMS_P1;PMS_P2;Temp;Humidity;BMP_temperature;BMP_pressure;BME280_temperature;BME280_humidity;BME280_pressure;Samples;Min_cycle;Max_cycle;Signal;HPM_P1;HPM_P2
2023/08/08 00:04:33;;;;;;;0.90;0.70;;;20.00;99.90;;;;;;10095189;28;20043;-69
2023/08/08 00:09:24;;;;;;;1.70;0.90;;;19.80;99.90;;;;;;10082712;28;20033;-70
2023/08/08 00:14:15;;;;;;;3.58;0.90;;;19.70;99.90;;;;;;10103798;28;20064;-70
2023/08/08 00:19:05;;;;;;;1.88;1.00;;;19.90;99.90;;;;;;10088713;28;20024;-69
2023/08/08 00:23:59;;;;;;;2.45;1.10;;;19.70;99.90;;;;;;10108672;28;20140;-69
2023/08/08 00:28:50;;;;;;;1.27;0.70;;;19.80;99.90;;;;;;10103521;28;20048;-69
2023/08/08 00:33:40;;;;;;;1.05;0.98;;;19.80;99.90;;;;;;10102721;28;20036;-70
2023/08/08 00:38:31;;;;;;;1.90;0.98;;;19.60;99.90;;;;;;10096410;28;20385;-70
2023/08/08 00:43:25;;;;;;;2.33;1.00;;;19.40;99.90;;;;;;10103183;28;20143;-71
2023/08/08 00:48:17;;;;;;;0.93;0.68;;;19.50;99.90;;;;;;10084803;28;20429;-70
2023/08/08 00:53:08;;;;;;;2.47;1.08;;;19.50;99.90;;;;;;10092045;28;20103;-69
2023/08/08 00:57:59;;;;;;;2.05;0.95;;;19.50;99.90;;;;;;10102072;28;20104;-69
2023/08/08 01:02:49;;;;;;;1.58;1.10;;;19.50;99.90;;;;;;10102165;28;20052;-69
2023/08/08 01:07:54;;;;;;;1.60;0.90;;;19.40;99.90;;;;;;10106271;28;20059;-69
2023/08/08 01:12:50;;;;;;;1.15;1.05;;;19.40;99.90;;;;;;10083920;28;20053;-69
2023/08/08 01:17:42;;;;;;;4.15;0.98;;;19.20;99.90;;;;;;10102204;28;20029;-68
2023/08/08 01:22:39;;;;;;;2.63;1.02;;;19.30;99.90;;;;;;10106592;28;20039;-68
2023/08/08 01:27:30;;;;;;;2.10;1.08;;;19.40;99.90;;;;;;10106781;28;20045;-68
2023/08/08 01:32:21;;;;;;;2.85;1.23;;;19.40;99.90;;;;;;10100844;28;20495;-68
2023/08/08 01:37:19;;;;;;;2.78;1.13;;;19.30;99.90;;;;;;10083845;28;20033;-68
2023/08/08 01:42:12;;;;;;;2.35;1.15;;;19.20;99.90;;;;;;10082767;28;20033;-69
2023/08/08 01:47:03;;;;;;;2.78;1.63;;;19.10;99.90;;;;;;10100999;28;20041;-68
2023/08/08 01:51:53;;;;;;;4.15;1.08;;;19.20;99.90;;;;;;10100519;28;20124;-69
2023/08/08 01:56:44;;;;;;;1.65;0.95;;;19.30;99.90;;;;;;10100888;28;20098;-68
2023/08/08 02:01:34;;;;;;;1.13;0.80;;;19.20;99.90;;;;;;10098145;28;20040;-69
2023/08/08 02:06:25;;;;;;;1.40;0.93;;;19.10;99.90;;;;;;10093974;28;20106;-70
2023/08/08 02:11:16;;;;;;;2.33;1.10;;;19.10;99.90;;;;;;10068041;28;20045;-69
2023/08/08 02:16:07;;;;;;;1.20;0.85;;;19.00;99.90;;;;;;10098848;28;20025;-69
2023/08/08 02:20:57;;;;;;;1.48;1.00;;;18.90;99.90;;;;;;10084404;28;20123;-68
2023/08/08 02:25:49;;;;;;;2.40;1.05;;;18.80;99.90;;;;;;10098773;28;20105;-68
2023/08/08 02:30:39;;;;;;;2.13;1.17;;;19.00;99.90;;;;;;10099358;28;20021;-68
2023/08/08 02:35:30;;;;;;;2.95;1.08;;;19.00;99.90;;;;;;10099557;28;20309;-68
2023/08/08 02:40:23;;;;;;;2.60;1.15;;;18.80;99.90;;;;;;10098845;28;20398;-69
2023/08/08 02:45:14;;;;;;;2.20;1.00;;;18.90;99.90;;;;;;10081059;28;20528;-69
2023/08/08 02:50:05;;;;;;;1.58;0.93;;;18.80;99.90;;;;;;10099298;28;20040;-68
2023/08/08 02:54:56;;;;;;;2.17;1.17;;;18.80;99.90;;;;;;10083008;28;20127;-69
2023/08/08 02:59:47;;;;;;;1.83;1.08;;;18.80;99.90;;;;;;10084703;28;20024;-68
2023/08/08 03:04:37;;;;;;;2.03;1.13;;;18.80;99.90;;;;;;10074093;28;20344;-68
2023/08/08 03:09:31;;;;;;;2.40;1.42;;;18.50;99.90;;;;;;10082434;28;20036;-69
2023/08/08 03:14:22;;;;;;;4.93;1.27;;;18.40;99.90;;;;;;10076786;28;20088;-69
2023/08/08 03:19:13;;;;;;;1.70;0.82;;;18.40;99.90;;;;;;10096113;28;20032;-69
2023/08/08 03:24:04;;;;;;;1.30;0.90;;;18.60;99.90;;;;;;10104026;28;20093;-69
2023/08/08 03:28:55;;;;;;;3.45;0.90;;;18.50;99.90;;;;;;10097865;28;20025;-68
2023/08/08 03:33:46;;;;;;;1.23;1.13;;;18.50;99.90;;;;;;10079217;28;20514;-69
2023/08/08 03:38:37;;;;;;;1.50;0.75;;;18.40;99.90;;;;;;10102396;28;20039;-68
2023/08/08 03:43:28;;;;;;;1.40;0.80;;;18.20;99.90;;;;;;10078117;28;20068;-68
2023/08/08 03:48:19;;;;;;;1.77;0.95;;;18.30;99.90;;;;;;10096066;28;20029;-68
2023/08/08 03:53:10;;;;;;;2.40;1.00;;;18.20;99.90;;;;;;10094716;28;20483;-68
2023/08/08 03:58:00;;;;;;;1.80;1.17;;;18.10;99.90;;;;;;10096680;28;20514;-68
2023/08/08 04:02:51;;;;;;;1.95;0.98;;;18.20;99.90;;;;;;10096529;28;20264;-70
2023/08/08 04:07:42;;;;;;;1.35;0.77;;;18.40;99.90;;;;;;10092473;28;20414;-69
2023/08/08 04:12:32;;;;;;;1.63;0.73;;;18.30;99.90;;;;;;10096151;28;20044;-69
2023/08/08 04:17:27;;;;;;;1.33;0.90;;;18.30;99.90;;;;;;10095905;28;20021;-69
2023/08/08 04:22:17;;;;;;;1.65;1.00;;;18.20;99.90;;;;;;10082065;28;20311;-69
2023/08/08 04:27:08;;;;;;;3.15;1.15;;;18.10;99.90;;;;;;10104516;28;20510;-69
2023/08/08 04:31:59;;;;;;;1.98;1.05;;;18.10;99.90;;;;;;10095464;28;20025;-70
2023/08/08 04:36:49;;;;;;;1.83;1.10;;;18.20;99.90;;;;;;10095687;28;20056;-69
2023/08/08 04:41:40;;;;;;;0.98;0.80;;;18.00;99.90;;;;;;10095241;28;20104;-69
2023/08/08 04:46:31;;;;;;;2.83;0.90;;;17.90;99.90;;;;;;10077623;28;20059;-69
2023/08/08 04:51:21;;;;;;;1.88;0.98;;;17.80;99.90;;;;;;10077359;28;20029;-70
2023/08/08 04:56:12;;;;;;;0.90;0.80;;;17.90;99.90;;;;;;10100430;28;20037;-69
2023/08/08 05:01:03;;;;;;;4.40;1.30;;;17.80;99.90;;;;;;10099666;28;20029;-69
2023/08/08 05:05:53;;;;;;;2.05;1.10;;;18.00;99.90;;;;;;10086030;28;20412;-70
2023/08/08 05:10:44;;;;;;;1.85;0.98;;;17.80;99.90;;;;;;10082296;28;20265;-69
2023/08/08 05:15:35;;;;;;;2.00;1.10;;;17.80;99.90;;;;;;10080952;28;20041;-69
2023/08/08 05:20:26;;;;;;;1.13;0.80;;;17.90;99.90;;;;;;10100075;28;20398;-69
2023/08/08 05:25:16;;;;;;;1.70;1.05;;;17.80;99.90;;;;;;10110830;28;20041;-71
2023/08/08 05:30:07;;;;;;;2.58;1.48;;;17.70;99.90;;;;;;10101059;28;20029;-68
2023/08/08 05:35:00;;;;;;;3.35;1.33;;;17.70;99.90;;;;;;10083419;28;20128;-70
2023/08/08 05:39:52;;;;;;;1.80;0.90;;;17.80;99.90;;;;;;10083081;28;20067;-70
2023/08/08 05:44:42;;;;;;;1.55;0.98;;;18.00;99.90;;;;;;10101261;28;20032;-72
2023/08/08 05:49:33;;;;;;;2.25;1.13;;;18.00;99.90;;;;;;10100766;28;20025;-69
2023/08/08 05:54:24;;;;;;;2.05;1.00;;;17.80;99.90;;;;;;10099822;28;20384;-68
2023/08/08 05:59:15;;;;;;;1.48;1.15;;;18.00;99.90;;;;;;10100633;28;20438;-70
2023/08/08 06:04:05;;;;;;;1.50;0.80;;;18.10;99.90;;;;;;10099757;28;20060;-69
2023/08/08 06:08:56;;;;;;;2.13;1.38;;;18.10;99.90;;;;;;10083284;28;20034;-70
2023/08/08 06:13:48;;;;;;;1.33;0.82;;;18.10;99.90;;;;;;10099497;28;20172;-70
2023/08/08 06:18:38;;;;;;;1.80;1.35;;;18.10;99.90;;;;;;10101310;28;20049;-69
2023/08/08 06:23:29;;;;;;;1.73;0.82;;;18.10;99.90;;;;;;10109052;28;20064;-69
2023/08/08 06:28:20;;;;;;;1.45;1.00;;;18.10;99.90;;;;;;10107171;28;20091;-69
2023/08/08 06:33:10;;;;;;;1.40;0.80;;;18.00;99.90;;;;;;10098801;28;20515;-70
2023/08/08 06:38:01;;;;;;;3.75;1.00;;;18.20;99.90;;;;;;10096752;28;20750;-68
2023/08/08 06:42:52;;;;;;;1.35;0.88;;;18.20;99.90;;;;;;10097739;28;20035;-69
2023/08/08 06:47:42;;;;;;;1.48;0.85;;;18.20;99.90;;;;;;10100369;28;20069;-68
2023/08/08 06:52:33;;;;;;;1.58;0.90;;;18.10;99.90;;;;;;10098265;28;20313;-68
2023/08/08 06:57:24;;;;;;;1.80;1.10;;;18.30;99.90;;;;;;10097959;28;20033;-67
2023/08/08 07:02:14;;;;;;;2.70;1.05;;;18.30;99.90;;;;;;10095008;28;20411;-68
2023/08/08 07:07:05;;;;;;;3.38;1.13;;;18.50;99.90;;;;;;10092853;28;20041;-70
2023/08/08 07:11:56;;;;;;;2.20;1.00;;;18.50;99.90;;;;;;10097329;28;20120;-67
2023/08/08 07:16:48;;;;;;;3.60;1.73;;;18.40;99.90;;;;;;10097951;28;20033;-68
2023/08/08 07:21:38;;;;;;;3.20;1.08;;;18.50;99.90;;;;;;10100151;28;20572;-67
2023/08/08 07:26:29;;;;;;;2.35;1.00;;;18.60;99.90;;;;;;10081270;28;20045;-68
2023/08/08 07:31:20;;;;;;;2.58;0.98;;;18.70;99.90;;;;;;10099398;28;20029;-67
2023/08/08 07:36:10;;;;;;;2.85;1.13;;;18.80;99.90;;;;;;10096112;28;20150;-68
2023/08/08 07:41:01;;;;;;;3.63;1.27;;;18.80;99.90;;;;;;10095906;28;20037;-68
2023/08/08 07:45:51;;;;;;;3.00;1.08;;;18.70;99.90;;;;;;10097368;28;20057;-67
2023/08/08 07:50:42;;;;;;;2.45;1.00;;;18.80;99.90;;;;;;10095856;28;20040;-67
2023/08/08 07:55:33;;;;;;;2.55;1.52;;;18.90;99.90;;;;;;10096316;28;20382;-68
2023/08/08 08:00:23;;;;;;;1.77;0.93;;;19.00;99.90;;;;;;10095942;28;20483;-69
2023/08/08 08:05:14;;;;;;;4.15;1.20;;;19.10;99.90;;;;;;10095891;28;20451;-68
2023/08/08 08:10:08;;;;;;;2.33;1.30;;;19.10;99.90;;;;;;10072409;28;20589;-69
2023/08/08 08:14:59;;;;;;;1.15;1.00;;;19.20;99.90;;;;;;10081713;28;20049;-69
2023/08/08 08:19:51;;;;;;;1.83;0.95;;;19.30;99.90;;;;;;10079631;28;20029;-69
2023/08/08 08:24:42;;;;;;;2.97;0.85;;;19.40;99.90;;;;;;10104614;28;20514;-69
2023/08/08 08:29:33;;;;;;;4.57;1.17;;;19.40;99.90;;;;;;10080019;28;20644;-69
2023/08/08 08:34:23;;;;;;;1.20;1.10;;;19.40;99.90;;;;;;10081734;28;20343;-69
2023/08/08 08:39:14;;;;;;;3.97;1.63;;;19.50;99.90;;;;;;10079557;28;20443;-69
2023/08/08 08:44:08;;;;;;;1.95;1.13;;;19.60;99.90;;;;;;10100799;28;20068;-68
2023/08/08 08:48:59;;;;;;;1.27;0.85;;;19.60;99.90;;;;;;10100448;28;20148;-68
2023/08/08 08:53:51;;;;;;;3.47;1.13;;;19.70;99.90;;;;;;10098984;28;20033;-69
2023/08/08 08:58:42;;;;;;;2.00;1.27;;;19.70;99.90;;;;;;10105500;28;20012;-69
2023/08/08 09:03:32;;;;;;;1.10;1.00;;;19.80;99.90;;;;;;10091816;28;20124;-68
2023/08/08 09:08:23;;;;;;;1.73;1.08;;;19.80;99.90;;;;;;10097626;28;20145;-69
2023/08/08 09:13:14;;;;;;;1.70;1.13;;;19.90;99.90;;;;;;10102209;28;20037;-69
2023/08/08 09:18:06;;;;;;;2.00;1.00;;;19.90;99.90;;;;;;10101467;28;20039;-70
2023/08/08 09:22:57;;;;;;;1.65;1.08;;;20.00;99.90;;;;;;10106743;28;20081;-68
2023/08/08 09:27:48;;;;;;;3.55;1.42;;;20.00;99.90;;;;;;10101284;28;20395;-68
2023/08/08 09:32:39;;;;;;;2.53;1.30;;;20.00;99.90;;;;;;10095692;28;20387;-69
2023/08/08 09:37:30;;;;;;;2.33;0.95;;;20.10;99.90;;;;;;10100534;28;20036;-69
2023/08/08 09:42:21;;;;;;;1.65;1.05;;;20.20;99.90;;;;;;10099006;28;20033;-68
2023/08/08 09:47:15;;;;;;;1.50;1.08;;;20.30;99.90;;;;;;10106504;28;20047;-69
2023/08/08 09:52:06;;;;;;;1.30;0.95;;;20.40;99.90;;;;;;10099612;28;20403;-69
2023/08/08 09:56:58;;;;;;;1.75;1.00;;;20.30;99.90;;;;;;10099765;28;20028;-69
2023/08/08 10:01:50;;;;;;;1.80;1.27;;;20.50;99.90;;;;;;10102257;28;20029;-69
2023/08/08 10:06:41;;;;;;;2.78;1.35;;;20.50;99.90;;;;;;10077571;28;20528;-69
2023/08/08 10:11:33;;;;;;;1.83;1.00;;;20.50;99.90;;;;;;10099228;28;20178;-70
2023/08/08 10:16:24;;;;;;;1.33;1.00;;;20.60;99.90;;;;;;10099450;28;20033;-71
2023/08/08 10:21:17;;;;;;;1.25;1.00;;;20.60;99.90;;;;;;10101886;28;20515;-68
2023/08/08 10:26:19;;;;;;;3.70;1.10;;;20.70;99.90;;;;;;10108239;28;20041;-68
2023/08/08 10:31:19;;;;;;;2.97;1.50;;;20.90;99.90;;;;;;10080154;28;20029;-69
2023/08/08 10:36:10;;;;;;;1.30;0.85;;;21.00;99.90;;;;;;10108160;28;20025;-68
2023/08/08 10:41:03;;;;;;;1.98;1.20;;;21.10;99.90;;;;;;10097237;28;20124;-69
2023/08/08 10:45:58;;;;;;;1.00;0.90;;;21.10;99.90;;;;;;10078420;28;20029;-69
2023/08/08 10:50:50;;;;;;;2.65;1.63;;;21.20;99.90;;;;;;10096797;28;20035;-69
2023/08/08 10:55:40;;;;;;;23.90;1.55;;;21.30;99.90;;;;;;10094457;28;20035;-70
2023/08/08 11:00:33;;;;;;;2.10;0.80;;;21.30;99.90;;;;;;10095733;28;20041;-69
2023/08/08 11:05:26;;;;;;;1.48;1.23;;;21.40;99.90;;;;;;10095325;28;20553;-69
2023/08/08 11:10:17;;;;;;;1.15;0.82;;;21.50;99.90;;;;;;10079061;28;20068;-69
2023/08/08 11:15:08;;;;;;;1.40;1.00;;;21.60;99.90;;;;;;10097610;28;20040;-68
2023/08/08 11:20:01;;;;;;;1.73;1.05;;;21.60;99.90;;;;;;10081220;28;20024;-69
2023/08/08 11:24:52;;;;;;;1.27;0.95;;;21.70;99.90;;;;;;10105171;28;20082;-68
2023/08/08 11:29:52;;;;;;;2.88;1.33;;;21.60;99.70;;;;;;10095950;28;20483;-68
2023/08/08 11:34:43;;;;;;;3.40;0.95;;;21.60;99.60;;;;;;10106092;28;20035;-68
2023/08/08 11:39:34;;;;;;;2.60;1.15;;;21.70;99.60;;;;;;10094374;28;20047;-67
2023/08/08 11:44:25;;;;;;;1.70;1.13;;;21.70;99.40;;;;;;10094428;28;20530;-69
2023/08/08 11:49:17;;;;;;;2.72;1.17;;;21.60;99.40;;;;;;10088464;28;20028;-69
2023/08/08 11:54:08;;;;;;;1.45;1.20;;;21.60;99.30;;;;;;10089049;28;20025;-69
2023/08/08 11:58:59;;;;;;;2.40;1.17;;;21.60;99.20;;;;;;10092651;28;20033;-67
2023/08/08 12:03:50;;;;;;;1.35;0.70;;;21.60;99.20;;;;;;10097443;28;20041;-68
2023/08/08 12:08:43;;;;;;;3.00;1.85;;;21.50;99.10;;;;;;10104639;28;20112;-67
2023/08/08 12:13:36;;;;;;;2.45;1.00;;;21.50;99.10;;;;;;10102019;28;20036;-67
2023/08/08 12:18:27;;;;;;;3.88;1.10;;;21.50;99.10;;;;;;10104732;28;20083;-67
2023/08/08 12:23:17;;;;;;;2.35;1.00;;;21.50;99.00;;;;;;10105877;28;20031;-66
2023/08/08 12:28:08;;;;;;;3.55;0.98;;;21.60;98.90;;;;;;10101911;28;20048;-67
2023/08/08 12:32:59;;;;;;;1.27;0.70;;;21.70;98.90;;;;;;10103988;28;20021;-67
2023/08/08 12:37:49;;;;;;;1.20;0.70;;;21.80;98.70;;;;;;10101474;28;20028;-67
2023/08/08 12:42:40;;;;;;;1.50;0.85;;;21.90;98.60;;;;;;10100931;28;20156;-66
2023/08/08 12:47:32;;;;;;;3.95;1.08;;;21.90;98.30;;;;;;10105363;28;20159;-68
2023/08/08 12:52:22;;;;;;;1.70;0.98;;;22.10;98.20;;;;;;10082526;28;20032;-69
2023/08/08 12:57:13;;;;;;;1.60;0.80;;;22.10;98.10;;;;;;10100721;28;20028;-69
2023/08/08 13:02:04;;;;;;;1.17;0.90;;;22.00;98.10;;;;;;10102350;28;20364;-69
2023/08/08 13:06:54;;;;;;;0.82;0.55;;;21.90;98.10;;;;;;10097615;28;20044;-68
2023/08/08 13:11:45;;;;;;;1.00;0.80;;;22.00;98.20;;;;;;10102294;28;20518;-68
2023/08/08 13:16:36;;;;;;;1.23;0.95;;;22.00;98.20;;;;;;10101787;28;20519;-69
2023/08/08 13:21:27;;;;;;;1.63;0.80;;;22.10;98.20;;;;;;10087116;28;20606;-67
2023/08/08 13:26:17;;;;;;;1.95;1.00;;;22.50;98.20;;;;;;10109897;28;20142;-68
2023/08/08 13:31:08;;;;;;;1.48;0.82;;;22.70;98.10;;;;;;10100551;28;20029;-67
2023/08/08 13:35:59;;;;;;;2.08;1.10;;;22.60;98.20;;;;;;10101950;28;20629;-67
2023/08/08 13:40:49;;;;;;;4.68;1.25;;;22.50;98.20;;;;;;10099842;28;20025;-66
2023/08/08 13:45:41;;;;;;;7.32;1.30;;;22.30;98.20;;;;;;10102969;28;20303;-67
2023/08/08 13:50:32;;;;;;;2.58;1.40;;;22.20;98.20;;;;;;10100254;28;20425;-67
2023/08/08 13:55:22;;;;;;;2.28;1.40;;;22.20;98.20;;;;;;10100672;28;20037;-67
2023/08/08 14:00:14;;;;;;;2.25;1.05;;;22.20;98.30;;;;;;10100286;28;20032;-67
2023/08/08 14:05:06;;;;;;;3.10;1.00;;;22.20;98.30;;;;;;10100195;28;20514;-66
2023/08/08 14:09:57;;;;;;;1.27;0.98;;;22.30;98.30;;;;;;10099350;28;20036;-67
2023/08/08 14:14:47;;;;;;;1.70;1.10;;;22.30;98.30;;;;;;10098887;28;20045;-67
2023/08/08 14:19:38;;;;;;;3.72;1.05;;;22.40;98.30;;;;;;10083369;28;20391;-67
2023/08/08 14:24:28;;;;;;;1.63;0.80;;;22.50;98.20;;;;;;10107853;28;20139;-67
2023/08/08 14:29:19;;;;;;;2.92;1.27;;;22.50;98.20;;;;;;10105644;28;20058;-66
2023/08/08 14:34:09;;;;;;;1.98;0.90;;;22.80;98.20;;;;;;10098058;28;20032;-67
2023/08/08 14:39:00;;;;;;;1.08;0.90;;;23.00;98.00;;;;;;10098455;28;20040;-66
2023/08/08 14:43:51;;;;;;;1.77;1.08;;;23.00;98.00;;;;;;10103940;28;20477;-67
2023/08/08 14:48:41;;;;;;;1.58;1.40;;;23.10;97.90;;;;;;10098544;28;20035;-67
2023/08/08 14:53:32;;;;;;;2.95;1.20;;;23.40;97.80;;;;;;10079692;28;20143;-69
2023/08/08 14:58:22;;;;;;;3.60;0.90;;;23.60;97.70;;;;;;10100532;28;20086;-67
2023/08/08 15:03:14;;;;;;;1.58;0.95;;;23.80;97.60;;;;;;10097601;28;20052;-69
2023/08/08 15:08:04;;;;;;;2.45;1.20;;;24.30;97.40;;;;;;10097019;28;20029;-69
2023/08/08 15:12:55;;;;;;;11.63;1.05;;;24.60;97.40;;;;;;10099332;28;20045;-71
2023/08/08 15:17:46;;;;;;;0.73;0.63;;;24.40;96.90;;;;;;10079312;28;20544;-68
2023/08/08 15:22:37;;;;;;;1.60;1.00;;;24.20;96.80;;;;;;10103700;28;20078;-71
2023/08/08 15:27:27;;;;;;;1.67;0.98;;;24.30;96.70;;;;;;10102108;28;20033;-66
2023/08/08 15:32:18;;;;;;;1.60;1.02;;;24.80;96.30;;;;;;10096401;28;20086;-67
2023/08/08 15:37:11;;;;;;;1.08;0.63;;;25.10;96.00;;;;;;10097015;28;20419;-69
2023/08/08 15:42:02;;;;;;;3.00;0.80;;;25.40;95.70;;;;;;10077901;28;20029;-69
2023/08/08 15:46:53;;;;;;;1.52;0.80;;;25.80;95.40;;;;;;10096473;28;20041;-69
2023/08/08 15:51:43;;;;;;;2.78;1.02;;;26.40;94.90;;;;;;10096487;28;20522;-68
2023/08/08 15:56:35;;;;;;;1.10;0.88;;;26.60;94.40;;;;;;10096682;28;20052;-69
2023/08/08 16:01:26;;;;;;;2.40;1.00;;;26.80;94.30;;;;;;10096168;28;20025;-70
2023/08/08 16:06:17;;;;;;;1.77;1.13;;;26.50;94.20;;;;;;10096272;28;20499;-70
2023/08/08 16:11:08;;;;;;;1.92;1.10;;;26.70;94.50;;;;;;10104216;28;20045;-70
2023/08/08 16:15:59;;;;;;;0.90;0.70;;;26.40;94.10;;;;;;10096616;28;20037;-70
2023/08/08 16:20:50;;;;;;;1.25;1.08;;;26.00;94.20;;;;;;10080626;28;20052;-68
2023/08/08 16:25:40;;;;;;;1.88;1.10;;;25.50;94.30;;;;;;10101364;28;20076;-67
2023/08/08 16:30:31;;;;;;;1.98;1.05;;;25.40;94.30;;;;;;10080648;28;20891;-67
2023/08/08 16:35:22;;;;;;;3.03;1.17;;;25.40;94.20;;;;;;10083747;28;20098;-68
2023/08/08 16:40:13;;;;;;;1.48;1.00;;;26.00;94.00;;;;;;10093399;28;20029;-68
2023/08/08 16:45:05;;;;;;;1.80;0.82;;;26.20;93.80;;;;;;10080268;28;20053;-68
2023/08/08 16:49:55;;;;;;;1.65;0.85;;;26.40;93.60;;;;;;10079132;28;20117;-68
2023/08/08 16:54:46;;;;;;;1.67;0.80;;;26.60;93.40;;;;;;10088315;28;20124;-68
2023/08/08 16:59:37;;;;;;;1.13;0.80;;;26.30;93.20;;;;;;10094831;28;20025;-68
2023/08/08 17:04:27;;;;;;;0.75;0.70;;;25.80;93.30;;;;;;10088236;28;20040;-67
2023/08/08 17:09:18;;;;;;;1.67;0.95;;;25.40;93.40;;;;;;10089857;28;20036;-70
2023/08/08 17:14:08;;;;;;;2.65;1.17;;;25.10;93.30;;;;;;10098385;28;20507;-67
2023/08/08 17:18:59;;;;;;;2.28;1.10;;;24.90;93.40;;;;;;10101727;28;20025;-67
2023/08/08 17:23:50;;;;;;;1.75;1.05;;;24.80;93.40;;;;;;10101350;28;20052;-67
2023/08/08 17:28:40;;;;;;;2.60;1.20;;;24.80;93.40;;;;;;10098564;28;20055;-67
2023/08/08 17:33:31;;;;;;;2.08;1.13;;;24.80;93.30;;;;;;10101648;28;20075;-68
2023/08/08 17:38:22;;;;;;;2.75;1.65;;;24.60;93.50;;;;;;10093553;28;20120;-67
2023/08/08 17:43:12;;;;;;;4.20;1.60;;;24.60;93.60;;;;;;10084978;28;20136;-67
2023/08/08 17:48:04;;;;;;;2.50;1.08;;;24.60;93.60;;;;;;10086545;28;20051;-67
2023/08/08 17:52:54;;;;;;;3.88;1.50;;;24.60;93.70;;;;;;10094462;28;20165;-68
2023/08/08 17:57:45;;;;;;;2.83;0.93;;;24.50;93.80;;;;;;10089780;28;20320;-67
2023/08/08 18:02:37;;;;;;;2.75;1.48;;;24.60;93.80;;;;;;10085960;28;20099;-68
2023/08/08 18:07:28;;;;;;;2.88;1.67;;;24.60;93.90;;;;;;10075307;28;20044;-69
2023/08/08 18:12:18;;;;;;;2.75;1.60;;;24.50;93.90;;;;;;10074885;28;20041;-68
2023/08/08 18:17:09;;;;;;;2.58;1.60;;;24.60;93.90;;;;;;10088351;28;20307;-68
2023/08/08 18:21:59;;;;;;;3.28;1.15;;;24.50;94.00;;;;;;10086164;28;20107;-68
2023/08/08 18:26:51;;;;;;;1.58;1.08;;;24.40;94.20;;;;;;10071141;28;20037;-67
2023/08/08 18:31:42;;;;;;;2.45;1.10;;;24.40;94.20;;;;;;10083274;28;20087;-69
2023/08/08 18:36:33;;;;;;;2.33;1.48;;;24.50;94.20;;;;;;10082514;28;20078;-69
2023/08/08 18:41:24;;;;;;;2.47;1.15;;;24.40;94.20;;;;;;10092941;28;20116;-70
2023/08/08 18:46:17;;;;;;;2.97;1.25;;;24.30;94.30;;;;;;10087039;28;20053;-69
2023/08/08 18:51:07;;;;;;;2.25;1.30;;;24.40;94.40;;;;;;10093944;28;20436;-70
2023/08/08 18:55:58;;;;;;;4.90;1.80;;;24.40;94.40;;;;;;10096945;28;20068;-70
2023/08/08 19:00:49;;;;;;;3.47;1.88;;;24.40;94.50;;;;;;10080578;28;20036;-70
2023/08/08 19:05:39;;;;;;;2.30;1.77;;;24.30;94.50;;;;;;10061499;28;20040;-69
2023/08/08 19:10:30;;;;;;;3.58;1.55;;;24.20;94.60;;;;;;10093838;28;20281;-69
2023/08/08 19:15:21;;;;;;;3.58;1.75;;;24.20;94.70;;;;;;10097132;28;20115;-69
2023/08/08 19:20:12;;;;;;;2.85;1.80;;;24.10;94.80;;;;;;10078435;28;20396;-68
2023/08/08 19:25:03;;;;;;;3.15;1.70;;;24.00;94.90;;;;;;10103097;28;20033;-68
2023/08/08 19:29:54;;;;;;;2.78;1.40;;;24.00;94.90;;;;;;10079178;28;20021;-67
2023/08/08 19:34:45;;;;;;;3.33;1.80;;;24.00;95.00;;;;;;10096549;28;20066;-67
2023/08/08 19:39:35;;;;;;;3.05;1.60;;;24.00;94.90;;;;;;10108220;28;20021;-67
2023/08/08 19:44:26;;;;;;;3.33;1.90;;;23.90;94.90;;;;;;10095644;28;20044;-67
2023/08/08 19:49:17;;;;;;;2.13;1.33;;;24.00;95.00;;;;;;10095662;28;20372;-67
2023/08/08 19:54:08;;;;;;;4.13;1.92;;;23.80;95.00;;;;;;10097114;28;20029;-67
2023/08/08 19:58:59;;;;;;;2.38;2.08;;;23.90;95.10;;;;;;10076036;28;20029;-67
2023/08/08 20:03:50;;;;;;;2.95;1.80;;;23.90;95.10;;;;;;10070433;28;20495;-67
2023/08/08 20:08:41;;;;;;;3.72;1.40;;;23.90;95.20;;;;;;10083807;28;20037;-68
2023/08/08 20:13:33;;;;;;;2.45;1.80;;;23.80;95.30;;;;;;10093257;28;20376;-68
2023/08/08 20:18:23;;;;;;;3.58;2.40;;;23.70;95.30;;;;;;10093541;28;20273;-66
2023/08/08 20:23:14;;;;;;;3.63;2.58;;;23.70;95.40;;;;;;10106491;28;20339;-68
2023/08/08 20:28:05;;;;;;;4.25;1.92;;;23.70;95.50;;;;;;10103638;28;20624;-68
2023/08/08 20:32:56;;;;;;;3.38;2.00;;;23.70;95.50;;;;;;10086258;28;20072;-68
2023/08/08 20:37:47;;;;;;;3.60;1.88;;;23.60;95.60;;;;;;10103745;28;20025;-66
2023/08/08 20:42:38;;;;;;;3.58;2.05;;;23.60;95.90;;;;;;10103164;28;20048;-67
2023/08/08 20:47:29;;;;;;;3.55;2.67;;;23.50;95.80;;;;;;10103756;28;20047;-68
2023/08/08 20:52:19;;;;;;;2.50;1.50;;;23.50;95.90;;;;;;10103048;28;20108;-66
2023/08/08 20:57:10;;;;;;;2.83;2.25;;;23.50;96.10;;;;;;10102114;28;20259;-66
2023/08/08 21:02:00;;;;;;;4.72;1.80;;;23.40;96.10;;;;;;10102400;28;20035;-65
2023/08/08 21:06:51;;;;;;;5.22;2.00;;;23.40;96.10;;;;;;10102359;28;20124;-66
2023/08/08 21:11:42;;;;;;;3.08;1.70;;;23.40;96.20;;;;;;10101294;28;20037;-66
2023/08/08 21:16:33;;;;;;;2.50;1.63;;;23.40;96.30;;;;;;10102107;28;20490;-66
2023/08/08 21:21:24;;;;;;;1.60;1.10;;;23.40;96.40;;;;;;10102977;28;20021;-66
2023/08/08 21:26:14;;;;;;;2.70;1.50;;;23.30;96.40;;;;;;10112165;28;20064;-66
2023/08/08 21:31:05;;;;;;;3.90;1.85;;;23.30;96.50;;;;;;10100832;28;20024;-66
2023/08/08 21:35:55;;;;;;;3.10;1.73;;;23.20;96.60;;;;;;10103148;28;20036;-66
2023/08/08 21:40:46;;;;;;;3.25;1.73;;;23.20;96.60;;;;;;10100220;28;20040;-66
2023/08/08 21:45:38;;;;;;;1.92;1.70;;;23.20;96.80;;;;;;10103346;28;20044;-66
2023/08/08 21:50:29;;;;;;;3.28;1.70;;;23.10;96.90;;;;;;10098202;28;20039;-66
2023/08/08 21:55:19;;;;;;;2.50;1.45;;;23.10;97.00;;;;;;10100449;28;20571;-66
2023/08/08 22:00:13;;;;;;;3.55;1.40;;;22.90;97.10;;;;;;10101062;28;20037;-66
2023/08/08 22:05:04;;;;;;;1.50;1.13;;;22.90;97.10;;;;;;10100422;28;20475;-68
2023/08/08 22:09:54;;;;;;;3.60;1.90;;;22.90;97.20;;;;;;10099442;28;20104;-67
2023/08/08 22:14:45;;;;;;;4.50;1.60;;;23.00;97.20;;;;;;10099413;28;20109;-66
2023/08/08 22:19:36;;;;;;;3.45;1.30;;;22.90;97.60;;;;;;10100070;28;20517;-67
2023/08/08 22:24:26;;;;;;;1.42;1.00;;;22.90;97.40;;;;;;10108515;28;20074;-67
2023/08/08 22:29:17;;;;;;;1.55;1.40;;;22.80;97.40;;;;;;10107297;28;20029;-68
2023/08/08 22:34:07;;;;;;;2.20;1.33;;;22.70;97.60;;;;;;10099334;28;20086;-68
2023/08/08 22:38:58;;;;;;;1.02;0.70;;;22.70;97.60;;;;;;10099206;28;20502;-68
2023/08/08 22:43:49;;;;;;;0.95;0.70;;;22.80;97.70;;;;;;10099569;28;20029;-67
2023/08/08 22:48:39;;;;;;;1.52;1.08;;;22.60;97.80;;;;;;10098251;28;20040;-66
2023/08/08 22:53:30;;;;;;;2.47;1.00;;;22.60;98.00;;;;;;10098573;28;20031;-69
2023/08/08 22:58:21;;;;;;;2.58;1.10;;;22.50;98.20;;;;;;10097757;28;20387;-66
2023/08/08 23:03:12;;;;;;;2.20;0.90;;;22.40;98.50;;;;;;10097040;28;20522;-66
2023/08/08 23:08:04;;;;;;;2.75;1.15;;;22.50;98.60;;;;;;10097805;28;20033;-67
2023/08/08 23:12:54;;;;;;;1.95;1.25;;;22.50;98.60;;;;;;10097335;28;20464;-66
2023/08/08 23:17:45;;;;;;;1.85;1.25;;;22.30;98.80;;;;;;10099513;28;20025;-66
2023/08/08 23:22:35;;;;;;;1.50;1.05;;;22.30;98.90;;;;;;10066051;28;20021;-67
2023/08/08 23:27:26;;;;;;;1.60;1.20;;;22.20;99.10;;;;;;10099579;28;20507;-67
2023/08/08 23:32:16;;;;;;;2.58;1.30;;;22.20;99.20;;;;;;10097136;28;20032;-67
2023/08/08 23:37:08;;;;;;;4.22;1.40;;;22.20;99.30;;;;;;10097148;28;20426;-67
2023/08/08 23:41:59;;;;;;;2.60;1.33;;;22.20;99.40;;;;;;10097543;28;20032;-68
2023/08/08 23:46:49;;;;;;;1.90;1.20;;;22.30;99.40;;;;;;10097146;28;20041;-68
2023/08/08 23:51:43;;;;;;;3.17;1.38;;;22.20;99.80;;;;;;10096754;28;20024;-67
2023/08/08 23:56:33;;;;;;;3.10;1.40;;;22.00;99.90;;;;;;10096504;28;20403;-66
